Time;durP1;ratioP1;P1;durP2;ratioP2;P2;SDS_P1;SDS_P2;PMS_P1;PMS_P2;Temp;Humidity;BMP_temperature;BMP_pressure;BME280_temperature;BME280_humidity;BME280_pressure;Samples;Min_cycle;Max_cycle;Signal;HPM_P1;HPM_P2
2021/07/08 00:00:50;;;;;;;7.35;6.60;;;19.50;81.50;;;;;;5075705;27;20040;-63
2021/07/08 00:03:16;;;;;;;7.22;6.53;;;19.40;82.00;;;;;;5079993;28;20039;-63
2021/07/08 00:05:43;;;;;;;8.60;6.75;;;19.40;81.90;;;;;;5077000;28;20403;-63
2021/07/08 00:08:10;;;;;;;7.32;6.63;;;19.40;82.20;;;;;;5077471;28;20035;-63
2021/07/08 00:10:41;;;;;;;7.95;6.90;;;19.30;82.40;;;;;;5078512;27;20032;-63
2021/07/08 00:13:08;;;;;;;9.20;7.13;;;19.30;82.50;;;;;;5077383;27;20652;-63
2021/07/08 00:15:34;;;;;;;10.38;7.28;;;19.30;82.60;;;;;;5075696;28;20513;-63
2021/07/08 00:18:05;;;;;;;11.57;7.63;;;19.30;82.70;;;;;;5078308;28;20076;-63
2021/07/08 00:20:31;;;;;;;11.23;7.43;;;19.20;83.10;;;;;;5077401;27;20055;-62
2021/07/08 00:22:57;;;;;;;8.45;7.65;;;19.20;83.10;;;;;;5081940;28;20495;-63
2021/07/08 00:25:25;;;;;;;10.63;8.00;;;19.10;83.20;;;;;;5079011;27;20038;-63
2021/07/08 00:27:52;;;;;;;9.07;7.25;;;19.10;83.50;;;;;;5076102;27;20039;-63
2021/07/08 00:30:19;;;;;;;10.30;8.13;;;19.10;83.50;;;;;;5083417;27;20162;-63
2021/07/08 00:32:45;;;;;;;9.00;7.07;;;19.10;83.60;;;;;;5084557;27;20069;-63
2021/07/08 00:35:11;;;;;;;8.35;7.05;;;19.10;83.60;;;;;;5082438;28;20064;-63
2021/07/08 00:37:37;;;;;;;9.23;7.20;;;19.10;83.70;;;;;;5082953;27;20441;-63
2021/07/08 00:40:05;;;;;;;8.77;7.88;;;19.10;83.70;;;;;;5081594;28;20044;-63
2021/07/08 00:42:31;;;;;;;8.15;7.25;;;19.20;84.50;;;;;;5084420;27;20028;-63
2021/07/08 00:44:57;;;;;;;8.77;7.72;;;19.20;83.40;;;;;;5085837;27;20107;-62
2021/07/08 00:47:22;;;;;;;8.57;7.68;;;19.20;83.30;;;;;;5083354;28;20033;-63
2021/07/08 00:49:50;;;;;;;8.27;7.47;;;19.30;83.10;;;;;;5086173;27;20077;-63
2021/07/08 00:52:16;;;;;;;9.25;7.47;;;19.30;82.90;;;;;;5084605;28;20046;-63
2021/07/08 00:54:41;;;;;;;9.70;8.25;;;19.30;82.80;;;;;;5081893;27;21185;-63
2021/07/08 00:57:07;;;;;;;8.50;7.28;;;19.30;82.60;;;;;;5083407;28;20142;-63
2021/07/08 00:59:37;;;;;;;9.00;7.75;;;19.40;82.60;;;;;;5085257;28;20029;-63
2021/07/08 01:02:02;;;;;;;8.45;7.60;;;19.40;82.60;;;;;;5082964;28;20036;-63
2021/07/08 01:04:29;;;;;;;9.35;7.75;;;19.40;82.40;;;;;;5080881;28;21456;-62
2021/07/08 01:06:56;;;;;;;8.60;7.57;;;19.40;82.40;;;;;;5084429;28;20020;-63
2021/07/08 01:09:21;;;;;;;9.18;7.88;;;19.40;82.40;;;;;;5079503;28;20032;-63
2021/07/08 01:11:48;;;;;;;8.48;7.43;;;19.50;83.10;;;;;;5079277;28;20036;-63
2021/07/08 01:14:13;;;;;;;12.82;7.43;;;19.50;82.20;;;;;;5082598;27;20035;-63
2021/07/08 01:16:39;;;;;;;8.02;7.22;;;19.50;82.10;;;;;;5083308;27;20024;-62
2021/07/08 01:19:05;;;;;;;9.75;7.60;;;19.50;82.00;;;;;;5096194;27;20111;-63
2021/07/08 01:21:32;;;;;;;9.15;7.80;;;19.50;82.00;;;;;;5078912;28;20028;-63
2021/07/08 01:24:02;;;;;;;9.25;7.47;;;19.50;82.00;;;;;;5082324;28;20043;-63
2021/07/08 01:26:27;;;;;;;10.43;8.02;;;19.50;82.00;;;;;;5080956;27;20085;-63
2021/07/08 01:28:54;;;;;;;9.05;7.47;;;19.50;82.00;;;;;;5084151;27;20051;-63
2021/07/08 01:31:22;;;;;;;8.73;7.63;;;19.60;82.00;;;;;;5084979;28;20123;-63
2021/07/08 01:33:48;;;;;;;11.10;7.90;;;19.50;81.80;;;;;;5095822;27;20028;-63
2021/07/08 01:36:14;;;;;;;10.63;8.07;;;19.60;81.80;;;;;;5078193;28;20495;-63
2021/07/08 01:38:40;;;;;;;9.98;8.25;;;19.60;81.70;;;;;;5080830;27;20512;-62
2021/07/08 01:41:06;;;;;;;10.00;8.18;;;19.60;81.40;;;;;;5083210;27;20035;-62
2021/07/08 01:43:37;;;;;;;12.85;7.75;;;19.60;81.30;;;;;;5083872;28;20120;-63
2021/07/08 01:46:03;;;;;;;9.32;8.43;;;19.50;81.40;;;;;;5093104;28;20028;-63
2021/07/08 01:48:29;;;;;;;11.25;8.60;;;19.50;81.60;;;;;;5084159;27;20529;-63
2021/07/08 01:50:54;;;;;;;12.88;8.57;;;19.50;81.70;;;;;;5076035;28;20036;-62
2021/07/08 01:53:20;;;;;;;10.90;9.43;;;19.40;81.70;;;;;;5082090;27;20063;-64
2021/07/08 01:55:46;;;;;;;11.05;8.82;;;19.30;81.90;;;;;;5081509;28;20033;-63
2021/07/08 01:58:11;;;;;;;9.90;8.90;;;19.30;82.30;;;;;;5079365;28;20032;-63
2021/07/08 02:00:37;;;;;;;13.95;9.25;;;19.30;82.60;;;;;;5079086;27;20845;-63
2021/07/08 02:03:03;;;;;;;12.25;10.10;;;19.20;82.50;;;;;;5082880;28;20513;-63
2021/07/08 02:08:51;;;;;;;11.05;9.43;;;19.20;83.40;;;;;;5079973;27;20035;-62
2021/07/08 02:11:17;;;;;;;12.15;10.00;;;19.20;82.70;;;;;;5077020;28;20043;-63
2021/07/08 02:13:43;;;;;;;11.60;8.93;;;19.10;82.90;;;;;;5079739;27;20034;-63
2021/07/08 02:16:09;;;;;;;10.25;9.25;;;19.10;83.00;;;;;;5081361;28;20435;-61
2021/07/08 02:18:36;;;;;;;10.30;8.95;;;19.10;83.10;;;;;;5086384;27;20032;-63
2021/07/08 02:21:02;;;;;;;10.25;8.50;;;19.00;83.30;;;;;;5082697;27;20039;-63
2021/07/08 02:23:28;;;;;;;8.88;7.97;;;19.00;83.40;;;;;;5086439;28;20567;-63
2021/07/08 02:25:54;;;;;;;9.38;7.88;;;18.90;83.60;;;;;;5090212;27;20039;-62
2021/07/08 02:28:20;;;;;;;8.75;7.93;;;19.00;83.90;;;;;;5084249;27;20032;-62
2021/07/08 02:30:46;;;;;;;9.73;8.45;;;18.90;84.00;;;;;;5082896;27;20120;-63
2021/07/08 02:33:11;;;;;;;10.15;7.93;;;18.90;84.10;;;;;;5080970;28;20399;-63
2021/07/08 02:35:37;;;;;;;7.95;7.15;;;18.90;84.10;;;;;;5083866;28;20021;-61
2021/07/08 02:38:04;;;;;;;8.00;7.07;;;18.90;84.20;;;;;;5085727;27;20047;-63
2021/07/08 02:40:39;;;;;;;8.30;7.50;;;19.00;84.30;;;;;;5085262;27;20035;-63
2021/07/08 02:43:06;;;;;;;7.85;7.05;;;19.00;84.80;;;;;;5084476;28;20032;-63
2021/07/08 02:45:34;;;;;;;10.15;8.15;;;18.90;84.40;;;;;;5087592;27;20032;-63
2021/07/08 02:48:02;;;;;;;8.10;7.30;;;19.00;84.60;;;;;;5083027;28;20028;-63
2021/07/08 02:50:30;;;;;;;7.47;6.72;;;19.00;84.50;;;;;;5082650;27;20044;-63
2021/07/08 02:52:56;;;;;;;8.13;7.32;;;19.00;84.60;;;;;;5085268;27;20562;-63
2021/07/08 02:55:22;;;;;;;8.65;7.80;;;19.00;84.50;;;;;;5084982;28;20495;-62
2021/07/08 02:57:48;;;;;;;8.80;7.70;;;19.00;84.50;;;;;;5079717;28;20044;-63
2021/07/08 03:00:17;;;;;;;8.27;7.47;;;19.00;84.20;;;;;;5083341;28;20036;-63
2021/07/08 03:02:43;;;;;;;8.30;7.45;;;19.00;84.30;;;;;;5085424;27;20036;-63
2021/07/08 03:05:10;;;;;;;8.05;7.28;;;19.00;84.30;;;;;;5082955;27;20056;-63
2021/07/08 03:07:37;;;;;;;8.63;7.22;;;19.10;84.40;;;;;;5082692;27;20044;-63
2021/07/08 03:10:05;;;;;;;8.18;7.38;;;19.00;84.30;;;;;;5083345;28;20101;-63
2021/07/08 03:12:30;;;;;;;8.60;7.72;;;19.00;84.30;;;;;;5081974;27;20044;-63
2021/07/08 03:14:56;;;;;;;8.23;7.35;;;19.00;84.30;;;;;;5082559;28;20149;-63
2021/07/08 03:17:22;;;;;;;8.15;7.35;;;19.10;84.40;;;;;;5081589;28;20048;-63
2021/07/08 03:19:47;;;;;;;8.32;7.18;;;19.00;84.40;;;;;;5089377;28;20032;-63
2021/07/08 03:22:13;;;;;;;7.60;6.90;;;19.00;84.50;;;;;;5081146;27;20040;-63
2021/07/08 03:24:39;;;;;;;7.80;7.00;;;19.10;84.60;;;;;;5081875;27;20051;-63
2021/07/08 03:27:05;;;;;;;8.05;7.25;;;19.00;84.60;;;;;;5086334;27;20059;-62
2021/07/08 03:29:30;;;;;;;8.23;6.97;;;19.10;84.60;;;;;;5083105;28;20043;-63
2021/07/08 03:31:56;;;;;;;7.85;7.10;;;19.10;84.50;;;;;;5084785;28;20043;-63
2021/07/08 03:34:22;;;;;;;7.35;6.65;;;19.10;84.50;;;;;;5082768;28;20032;-63
2021/07/08 03:36:47;;;;;;;6.22;5.63;;;19.10;84.50;;;;;;5077370;27;20510;-63
2021/07/08 03:39:13;;;;;;;6.38;5.78;;;19.10;84.50;;;;;;5080232;28;20043;-63
2021/07/08 03:41:39;;;;;;;6.03;5.43;;;19.10;84.50;;;;;;5082872;27;20050;-63
2021/07/08 03:44:04;;;;;;;5.43;4.80;;;19.10;84.60;;;;;;5080517;28;20403;-63
2021/07/08 03:46:30;;;;;;;4.53;3.83;;;19.10;84.50;;;;;;5082416;28;20028;-63
2021/07/08 03:48:56;;;;;;;4.15;3.85;;;19.10;84.30;;;;;;5078981;28;20036;-63
2021/07/08 03:51:22;;;;;;;4.32;3.92;;;19.10;84.20;;;;;;5081601;28;20498;-62
2021/07/08 03:53:47;;;;;;;4.70;3.95;;;19.10;84.10;;;;;;5080077;27;20099;-63
2021/07/08 03:56:14;;;;;;;4.53;3.90;;;19.10;84.10;;;;;;5082451;28;20043;-63
2021/07/08 03:58:40;;;;;;;4.35;3.90;;;19.10;84.10;;;;;;5085424;27;20020;-63
2021/07/08 04:01:06;;;;;;;3.88;3.58;;;19.10;84.10;;;;;;5081097;27;20044;-63
2021/07/08 04:03:32;;;;;;;3.90;3.60;;;19.00;84.00;;;;;;5081867;28;20100;-64
2021/07/08 04:05:58;;;;;;;3.90;3.60;;;19.10;84.10;;;;;;5077786;27;20785;-63
2021/07/08 04:08:23;;;;;;;3.97;3.58;;;19.10;84.10;;;;;;5078579;27;20047;-63
2021/07/08 04:10:49;;;;;;;3.65;3.35;;;19.10;84.30;;;;;;5077215;27;20032;-63
2021/07/08 04:13:19;;;;;;;4.07;3.78;;;19.10;84.30;;;;;;5082169;27;20032;-62
2021/07/08 04:15:46;;;;;;;3.88;3.58;;;19.20;84.40;;;;;;5083909;28;20074;-62
2021/07/08 04:18:12;;;;;;;4.63;3.83;;;19.10;84.30;;;;;;5077036;27;20499;-63
2021/07/08 04:20:40;;;;;;;3.85;3.55;;;19.10;84.10;;;;;;5078181;27;20035;-62
2021/07/08 04:23:07;;;;;;;4.10;3.80;;;19.10;84.10;;;;;;5073572;28;20062;-63
2021/07/08 04:25:33;;;;;;;3.42;3.22;;;19.10;84.10;;;;;;5080247;27;20036;-62
2021/07/08 04:27:59;;;;;;;3.10;2.90;;;19.00;84.00;;;;;;5076861;28;20040;-63
2021/07/08 04:30:26;;;;;;;3.90;3.60;;;19.00;84.10;;;;;;5076174;28;20032;-63
2021/07/08 04:32:53;;;;;;;3.38;3.17;;;19.00;84.30;;;;;;5081071;28;20046;-63
2021/07/08 04:35:21;;;;;;;3.80;3.40;;;18.90;84.50;;;;;;5086801;27;20093;-63
2021/07/08 04:37:48;;;;;;;3.25;3.05;;;19.00;84.70;;;;;;5085150;28;20039;-63
2021/07/08 04:40:20;;;;;;;3.38;3.17;;;19.00;84.80;;;;;;5084092;28;20036;-63
2021/07/08 04:42:47;;;;;;;3.33;3.13;;;19.00;85.00;;;;;;5083089;28;20035;-63
2021/07/08 04:45:13;;;;;;;3.92;3.63;;;19.00;84.70;;;;;;5089500;27;20403;-63
2021/07/08 04:47:40;;;;;;;3.53;3.22;;;19.10;84.60;;;;;;5086430;27;20039;-63
2021/07/08 04:50:09;;;;;;;3.83;3.53;;;19.10;84.60;;;;;;5096218;27;20040;-63
2021/07/08 04:52:36;;;;;;;3.97;3.67;;;19.20;84.50;;;;;;5087343;27;20047;-63
2021/07/08 04:55:07;;;;;;;3.85;3.55;;;19.20;84.30;;;;;;5086465;28;20127;-63
2021/07/08 04:57:32;;;;;;;3.90;3.60;;;19.20;84.10;;;;;;5086896;28;20599;-63
2021/07/08 04:59:58;;;;;;;3.70;3.50;;;19.30;84.00;;;;;;5087275;27;20036;-63
2021/07/08 05:02:24;;;;;;;3.90;3.60;;;19.30;83.90;;;;;;5086081;28;20044;-63
2021/07/08 05:04:50;;;;;;;3.83;3.53;;;19.30;83.80;;;;;;5086001;27;20032;-64
2021/07/08 05:07:16;;;;;;;3.20;3.00;;;19.40;83.70;;;;;;5086735;27;20042;-64
2021/07/08 05:09:43;;;;;;;3.88;3.58;;;19.40;83.50;;;;;;5085921;28;20027;-63
2021/07/08 05:12:09;;;;;;;3.58;3.28;;;19.30;83.30;;;;;;5083915;28;20063;-63
2021/07/08 05:14:35;;;;;;;3.60;3.30;;;19.40;83.50;;;;;;5078129;27;20586;-63
2021/07/08 05:17:02;;;;;;;3.30;3.10;;;19.30;83.60;;;;;;5094585;27;20024;-63
2021/07/08 05:19:28;;;;;;;3.60;3.30;;;19.30;83.80;;;;;;5087607;27;20029;-63
2021/07/08 05:21:54;;;;;;;3.25;2.95;;;19.40;83.70;;;;;;5086353;28;20482;-63
2021/07/08 05:24:23;;;;;;;4.95;3.30;;;19.40;83.60;;;;;;5084153;27;20093;-63
2021/07/08 05:26:49;;;;;;;3.33;3.10;;;19.30;83.40;;;;;;5082279;28;20028;-63
2021/07/08 05:29:15;;;;;;;3.15;2.95;;;19.40;83.40;;;;;;5085630;28;20407;-63
2021/07/08 05:31:41;;;;;;;3.72;3.42;;;19.30;83.40;;;;;;5084009;27;20036;-63
2021/07/08 05:34:07;;;;;;;3.22;3.03;;;19.40;83.30;;;;;;5086300;28;20472;-63
2021/07/08 05:36:33;;;;;;;3.83;3.53;;;19.40;83.30;;;;;;5101414;27;20165;-63
2021/07/08 05:38:58;;;;;;;3.78;3.30;;;19.40;83.50;;;;;;5092860;27;20455;-63
2021/07/08 05:41:24;;;;;;;3.90;3.60;;;19.40;83.40;;;;;;5084907;28;20537;-63
2021/07/08 05:43:49;;;;;;;3.33;3.13;;;19.40;83.30;;;;;;5079753;28;20052;-63
2021/07/08 05:46:15;;;;;;;5.63;3.80;;;19.40;83.10;;;;;;5085143;28;20048;-64
2021/07/08 05:48:41;;;;;;;5.30;3.80;;;19.40;83.10;;;;;;5092216;27;20025;-63
2021/07/08 05:51:06;;;;;;;4.60;3.90;;;19.40;83.00;;;;;;5084260;28;20040;-63
2021/07/08 05:53:32;;;;;;;3.97;3.60;;;19.40;82.90;;;;;;5088660;28;20487;-63
2021/07/08 05:55:57;;;;;;;4.03;3.63;;;19.40;82.80;;;;;;5090512;27;20089;-63
2021/07/08 05:58:23;;;;;;;4.82;3.70;;;19.40;82.90;;;;;;5089308;27;20146;-64
2021/07/08 06:00:49;;;;;;;3.50;3.20;;;19.50;83.10;;;;;;5090824;28;20038;-63
2021/07/08 06:03:15;;;;;;;2.75;2.55;;;19.50;82.90;;;;;;5088551;27;20395;-63
2021/07/08 06:05:41;;;;;;;5.22;2.90;;;19.50;82.60;;;;;;5090173;28;20039;-63
2021/07/08 06:08:07;;;;;;;3.03;2.65;;;19.50;82.30;;;;;;5087530;27;20028;-63
2021/07/08 06:10:32;;;;;;;3.17;2.63;;;19.50;82.20;;;;;;5087313;27;20028;-63
2021/07/08 06:12:58;;;;;;;2.70;2.45;;;19.40;82.00;;;;;;5090229;28;20142;-63
2021/07/08 06:15:24;;;;;;;4.60;3.97;;;19.40;82.10;;;;;;5083618;27;20047;-63
2021/07/08 06:17:50;;;;;;;12.25;10.95;;;19.40;82.40;;;;;;5089864;28;20028;-63
2021/07/08 06:20:17;;;;;;;5.88;5.35;;;19.40;82.70;;;;;;5089024;27;20028;-63
2021/07/08 06:22:43;;;;;;;3.60;3.30;;;19.40;82.70;;;;;;5089154;27;20056;-63
2021/07/08 06:25:10;;;;;;;3.20;3.00;;;19.40;82.70;;;;;;5089865;28;20040;-63
2021/07/08 06:30:58;;;;;;;2.63;2.42;;;19.40;82.90;;;;;;5085952;27;20116;-63
2021/07/08 06:33:23;;;;;;;2.67;2.47;;;19.40;82.60;;;;;;5082699;28;20078;-63
2021/07/08 06:35:49;;;;;;;2.83;2.58;;;19.40;82.70;;;;;;5087407;28;20086;-63
2021/07/08 06:38:15;;;;;;;2.63;2.42;;;19.40;83.10;;;;;;5090047;28;20028;-62
2021/07/08 06:40:41;;;;;;;2.47;2.28;;;19.40;83.10;;;;;;5088002;28;20524;-64
2021/07/08 06:43:07;;;;;;;3.00;2.80;;;19.40;83.10;;;;;;5087702;27;20721;-63
2021/07/08 06:45:35;;;;;;;2.90;2.70;;;19.40;83.10;;;;;;5081385;28;20028;-63
2021/07/08 06:48:02;;;;;;;3.08;2.88;;;19.40;83.30;;;;;;5087125;27;20040;-63
2021/07/08 06:50:29;;;;;;;3.08;2.88;;;19.40;83.00;;;;;;5082608;27;20503;-63
2021/07/08 06:52:55;;;;;;;2.88;2.67;;;19.40;82.70;;;;;;5088636;27;20100;-64
2021/07/08 06:55:20;;;;;;;2.83;2.63;;;19.40;82.90;;;;;;5088250;27;20508;-63
2021/07/08 06:57:52;;;;;;;2.83;2.63;;;19.40;83.20;;;;;;5089166;28;20032;-63
2021/07/08 07:00:25;;;;;;;3.90;3.60;;;19.50;83.30;;;;;;5089550;27;20059;-63
2021/07/08 07:02:57;;;;;;;3.60;3.30;;;19.50;83.00;;;;;;5082650;27;20040;-63
2021/07/08 07:05:23;;;;;;;3.58;3.28;;;19.50;82.90;;;;;;5088071;27;20036;-63
2021/07/08 07:07:50;;;;;;;3.38;3.08;;;19.50;82.90;;;;;;5089513;27;20032;-63
2021/07/08 07:10:16;;;;;;;4.95;3.55;;;19.40;82.90;;;;;;5087345;28;20209;-63
2021/07/08 07:12:46;;;;;;;3.92;3.63;;;19.40;82.90;;;;;;5086175;27;20110;-63
2021/07/08 07:15:16;;;;;;;3.83;3.50;;;19.40;83.30;;;;;;5086411;27;20029;-63
2021/07/08 07:17:43;;;;;;;4.03;3.72;;;19.40;83.50;;;;;;5087749;28;20039;-63
2021/07/08 07:20:10;;;;;;;3.75;3.45;;;19.40;83.80;;;;;;5088887;27;20405;-63
2021/07/08 07:22:37;;;;;;;3.67;3.38;;;19.50;83.70;;;;;;5088675;27;20121;-63
2021/07/08 07:25:04;;;;;;;3.95;3.40;;;19.50;83.40;;;;;;5088009;28;20034;-63
2021/07/08 07:27:31;;;;;;;3.35;3.15;;;19.50;83.60;;;;;;5088514;27;20028;-63
2021/07/08 07:30:01;;;;;;;3.95;3.65;;;19.50;83.50;;;;;;5087267;28;20062;-62
2021/07/08 07:32:27;;;;;;;4.05;3.55;;;19.50;83.60;;;;;;5084653;27;20028;-63
2021/07/08 07:34:53;;;;;;;3.65;3.40;;;19.50;84.30;;;;;;5085990;28;20036;-63
2021/07/08 07:37:18;;;;;;;3.53;3.22;;;19.50;83.50;;;;;;5088156;28;20107;-63
2021/07/08 07:39:44;;;;;;;3.42;3.13;;;19.50;83.60;;;;;;5087044;27;20036;-63
2021/07/08 07:42:10;;;;;;;3.45;3.17;;;19.50;83.50;;;;;;5088179;28;20300;-63
2021/07/08 07:44:35;;;;;;;3.63;3.22;;;19.50;83.80;;;;;;5086265;28;20036;-63
2021/07/08 07:47:01;;;;;;;3.17;2.97;;;19.40;83.70;;;;;;5088185;27;20032;-63
2021/07/08 07:49:26;;;;;;;3.75;3.45;;;19.40;83.40;;;;;;5087581;28;20073;-63
2021/07/08 07:51:52;;;;;;;3.75;3.47;;;19.40;83.30;;;;;;5088237;27;20046;-63
2021/07/08 07:54:18;;;;;;;3.58;3.28;;;19.40;83.50;;;;;;5087358;27;20449;-64
2021/07/08 07:56:43;;;;;;;3.55;3.25;;;19.40;83.60;;;;;;5094433;27;20115;-64
2021/07/08 07:59:09;;;;;;;4.32;3.95;;;19.40;83.90;;;;;;5087486;27;20024;-63
2021/07/08 08:01:34;;;;;;;3.85;3.45;;;19.40;83.90;;;;;;5086491;28;20036;-64
2021/07/08 08:04:00;;;;;;;4.57;3.63;;;19.40;84.00;;;;;;5087602;27;20249;-64
2021/07/08 08:09:11;;;;;;;3.70;3.40;;;19.50;84.00;;;;;;5088541;28;20461;-64
2021/07/08 08:11:38;;;;;;;3.47;3.22;;;19.60;83.90;;;;;;5097197;27;20044;-64
2021/07/08 08:14:04;;;;;;;3.90;3.58;;;19.50;84.60;;;;;;5083904;28;20063;-63
2021/07/08 08:16:33;;;;;;;3.65;3.35;;;19.60;83.60;;;;;;5085861;27;20032;-64
2021/07/08 08:18:58;;;;;;;3.58;3.28;;;19.60;83.70;;;;;;5086641;27;20031;-64
2021/07/08 08:21:24;;;;;;;3.78;3.47;;;19.60;83.80;;;;;;5087825;28;20024;-63
2021/07/08 08:23:49;;;;;;;3.50;3.28;;;19.70;83.80;;;;;;5086702;27;20043;-64
2021/07/08 08:26:15;;;;;;;3.88;3.58;;;19.70;83.60;;;;;;5084536;28;20055;-64
2021/07/08 08:28:41;;;;;;;4.18;3.78;;;19.70;83.60;;;;;;5091494;27;20040;-63
2021/07/08 08:31:06;;;;;;;4.43;4.07;;;19.80;84.40;;;;;;5084106;27;20032;-63
2021/07/08 08:33:32;;;;;;;4.82;4.43;;;19.80;83.20;;;;;;5085178;28;20107;-64
2021/07/08 08:35:57;;;;;;;4.65;4.30;;;19.80;83.10;;;;;;5087661;27;20484;-63
2021/07/08 08:38:23;;;;;;;4.68;4.30;;;19.80;83.20;;;;;;5082418;27;20074;-63
2021/07/08 08:40:49;;;;;;;4.40;4.00;;;19.80;83.10;;;;;;5085523;28;20035;-63
2021/07/08 08:43:15;;;;;;;4.30;3.83;;;19.80;83.00;;;;;;5085282;27;20815;-63
2021/07/08 08:45:42;;;;;;;3.67;3.42;;;19.80;82.80;;;;;;5085514;28;20039;-63
2021/07/08 08:48:10;;;;;;;4.00;3.60;;;19.80;82.70;;;;;;5086241;27;20024;-63
2021/07/08 08:50:44;;;;;;;3.58;3.28;;;19.80;82.70;;;;;;5085596;27;20032;-63
2021/07/08 08:53:11;;;;;;;4.63;3.80;;;19.80;82.70;;;;;;5086037;28;20131;-63
2021/07/08 08:55:39;;;;;;;4.00;3.55;;;19.80;82.70;;;;;;5086972;27;20499;-63
2021/07/08 08:58:09;;;;;;;3.25;2.95;;;19.80;82.70;;;;;;5087047;28;20067;-63
2021/07/08 09:00:49;;;;;;;3.53;3.22;;;19.80;82.50;;;;;;5084769;27;20402;-63
2021/07/08 09:03:16;;;;;;;3.33;3.13;;;19.70;82.50;;;;;;5085409;27;20032;-63
2021/07/08 09:05:48;;;;;;;3.65;3.35;;;19.70;82.60;;;;;;5087231;28;20024;-63
2021/07/08 09:08:21;;;;;;;4.05;3.65;;;19.70;82.70;;;;;;5086407;27;20043;-63
2021/07/08 09:11:02;;;;;;;3.58;3.28;;;19.60;82.70;;;;;;5084910;27;20028;-64
2021/07/08 09:13:50;;;;;;;4.30;3.50;;;19.60;82.60;;;;;;5086175;28;20028;-63
2021/07/08 09:16:26;;;;;;;5.05;4.03;;;19.60;82.40;;;;;;5076350;27;20107;-64
2021/07/08 09:19:00;;;;;;;3.83;3.53;;;19.50;82.40;;;;;;5085967;27;20323;-63
2021/07/08 09:21:28;;;;;;;6.63;4.05;;;19.40;82.70;;;;;;5086519;28;20051;-63
2021/07/08 09:24:12;;;;;;;4.70;3.83;;;19.40;83.00;;;;;;5085721;27;20124;-63
2021/07/08 09:26:59;;;;;;;3.67;3.33;;;19.40;83.70;;;;;;5086542;27;20044;-64
2021/07/08 09:29:34;;;;;;;3.17;2.97;;;19.30;83.60;;;;;;5079192;27;20032;-63
2021/07/08 09:32:06;;;;;;;3.53;3.15;;;19.30;83.70;;;;;;5078419;28;20039;-63
2021/07/08 09:34:34;;;;;;;3.20;2.90;;;19.40;84.00;;;;;;5077397;27;20103;-64
2021/07/08 09:37:02;;;;;;;2.30;2.10;;;19.30;83.60;;;;;;5086839;28;20040;-64
2021/07/08 09:39:31;;;;;;;2.08;1.63;;;19.30;83.20;;;;;;5086433;27;20503;-63
2021/07/08 09:41:57;;;;;;;1.55;1.40;;;19.20;82.70;;;;;;5086611;28;20032;-64
2021/07/08 09:44:25;;;;;;;1.63;1.52;;;19.20;83.00;;;;;;5084830;27;20035;-64
2021/07/08 09:46:53;;;;;;;1.85;1.17;;;19.20;83.30;;;;;;5087120;27;20271;-63
2021/07/08 09:49:19;;;;;;;1.73;1.40;;;19.20;83.60;;;;;;5084556;28;20406;-63
2021/07/08 09:51:45;;;;;;;1.83;1.13;;;19.20;83.30;;;;;;5082973;27;20028;-62
2021/07/08 09:56:47;;;;;;;3.97;1.80;;;19.20;84.30;;;;;;5082755;27;20062;-63
2021/07/08 09:59:14;;;;;;;1.65;1.55;;;19.20;83.80;;;;;;5078594;28;20032;-63
2021/07/08 10:01:42;;;;;;;1.63;1.52;;;19.20;83.80;;;;;;5083312;28;20675;-63
2021/07/08 10:04:08;;;;;;;2.40;1.90;;;19.20;83.80;;;;;;5085168;27;20036;-63
2021/07/08 10:06:36;;;;;;;2.40;2.20;;;19.30;84.50;;;;;;5086568;27;20779;-62
2021/07/08 10:09:02;;;;;;;2.47;2.28;;;19.30;83.60;;;;;;5085298;28;20043;-63
2021/07/08 10:11:29;;;;;;;2.92;2.72;;;19.30;83.60;;;;;;5081757;28;20519;-63
2021/07/08 10:13:57;;;;;;;2.35;2.15;;;19.30;83.50;;;;;;5085872;28;20142;-63
2021/07/08 10:16:24;;;;;;;2.75;2.55;;;19.30;83.40;;;;;;5086672;27;20028;-63
2021/07/08 10:18:53;;;;;;;3.17;2.80;;;19.20;83.40;;;;;;5086607;27;20044;-63
2021/07/08 10:21:19;;;;;;;2.70;2.50;;;19.20;83.60;;;;;;5086697;28;20040;-63
2021/07/08 10:23:45;;;;;;;2.67;2.47;;;19.20;83.80;;;;;;5086271;27;20105;-63
2021/07/08 10:26:10;;;;;;;2.38;2.15;;;19.20;84.20;;;;;;5086545;28;20028;-63
2021/07/08 10:28:42;;;;;;;2.40;2.20;;;19.20;84.50;;;;;;5086892;27;20624;-63
2021/07/08 10:31:08;;;;;;;2.72;2.53;;;19.20;84.80;;;;;;5086443;27;20380;-63
2021/07/08 10:33:33;;;;;;;2.90;2.50;;;19.20;84.60;;;;;;5079176;28;20043;-63
2021/07/08 10:35:59;;;;;;;2.47;2.28;;;19.20;84.50;;;;;;5085248;27;20397;-63
2021/07/08 10:38:27;;;;;;;2.50;2.30;;;19.30;84.40;;;;;;5086604;27;20564;-63
2021/07/08 10:40:57;;;;;;;2.60;2.40;;;19.30;84.10;;;;;;5088136;28;20031;-63
2021/07/08 10:43:41;;;;;;;1.90;1.80;;;19.40;84.00;;;;;;5087212;27;20036;-63
2021/07/08 10:46:08;;;;;;;2.30;1.95;;;19.30;84.10;;;;;;5088777;28;20088;-63
2021/07/08 10:48:42;;;;;;;2.45;2.25;;;19.30;83.80;;;;;;5081437;28;20068;-63
2021/07/08 10:51:15;;;;;;;2.50;2.30;;;19.30;84.30;;;;;;5089371;27;20024;-63
2021/07/08 10:53:42;;;;;;;3.05;2.47;;;19.30;84.30;;;;;;5087317;28;20028;-63
2021/07/08 10:56:10;;;;;;;3.05;2.25;;;19.20;84.50;;;;;;5088658;27;20032;-63
2021/07/08 10:58:38;;;;;;;2.88;2.22;;;19.20;84.80;;;;;;5088307;27;20032;-63
2021/07/08 11:01:26;;;;;;;3.17;2.80;;;19.30;84.90;;;;;;5086496;27;20028;-63
2021/07/08 11:03:58;;;;;;;4.00;2.47;;;19.30;84.90;;;;;;5089240;27;20040;-63
2021/07/08 11:06:29;;;;;;;2.45;2.25;;;19.30;85.20;;;;;;5087166;27;20444;-63
2021/07/08 11:08:58;;;;;;;1.98;1.77;;;19.30;85.20;;;;;;5089141;28;20089;-64
2021/07/08 11:11:24;;;;;;;2.42;1.90;;;19.30;85.00;;;;;;5087046;27;20561;-63
2021/07/08 11:13:54;;;;;;;1.67;1.58;;;19.40;84.90;;;;;;5089145;27;20024;-64
2021/07/08 11:16:38;;;;;;;1.77;1.67;;;19.40;84.70;;;;;;5088543;27;20036;-64
2021/07/08 11:19:04;;;;;;;2.50;2.05;;;19.40;84.70;;;;;;5081597;28;20036;-63
2021/07/08 11:21:49;;;;;;;2.00;1.90;;;19.50;84.50;;;;;;5089409;27;20047;-63
2021/07/08 11:24:23;;;;;;;3.33;1.70;;;19.50;84.60;;;;;;5088215;27;20115;-63
2021/07/08 11:26:54;;;;;;;1.67;1.50;;;19.60;84.50;;;;;;5087485;27;20109;-63
2021/07/08 11:29:44;;;;;;;1.92;1.70;;;19.60;84.00;;;;;;5087829;28;20316;-63
2021/07/08 11:32:29;;;;;;;2.55;1.80;;;19.60;83.80;;;;;;5088677;27;20135;-63
2021/07/08 11:34:59;;;;;;;1.70;1.60;;;19.70;84.00;;;;;;5086711;27;20024;-62
2021/07/08 11:37:30;;;;;;;1.27;1.17;;;19.70;83.60;;;;;;5088199;27;20032;-63
2021/07/08 11:39:58;;;;;;;1.67;1.30;;;19.70;83.40;;;;;;5088107;27;20055;-63
2021/07/08 11:42:29;;;;;;;5.30;1.45;;;19.70;83.00;;;;;;5088197;27;20310;-63
2021/07/08 11:44:55;;;;;;;3.75;1.70;;;19.70;82.70;;;;;;5088132;28;20067;-63
2021/07/08 11:47:22;;;;;;;3.15;1.90;;;19.60;82.70;;;;;;5086027;27;20067;-63
2021/07/08 11:49:49;;;;;;;2.17;1.98;;;19.50;82.90;;;;;;5086416;28;20039;-63
2021/07/08 11:52:29;;;;;;;2.05;1.88;;;19.50;82.90;;;;;;5087744;27;20066;-63
2021/07/08 11:55:00;;;;;;;3.25;2.05;;;19.40;83.30;;;;;;5087532;27;20520;-63
2021/07/08 11:57:26;;;;;;;3.28;1.88;;;19.30;83.30;;;;;;5087598;28;20024;-63
2021/07/08 11:59:53;;;;;;;3.17;2.05;;;19.20;83.40;;;;;;5086358;28;20111;-63
2021/07/08 12:02:32;;;;;;;2.42;2.22;;;19.10;83.70;;;;;;5086147;28;20040;-63
2021/07/08 12:05:18;;;;;;;2.05;1.92;;;19.00;84.60;;;;;;5086285;28;20052;-63
2021/07/08 12:07:44;;;;;;;;;;;19.00;84.80;;;;;;5087576;27;20530;-63
2021/07/08 12:10:11;;;;;;;2.90;1.85;;;18.90;84.60;;;;;;5087022;28;20306;-63
2021/07/08 12:12:39;;;;;;;1.70;1.60;;;18.90;84.40;;;;;;5086001;28;20055;-63
2021/07/08 12:15:05;;;;;;;3.15;1.88;;;18.80;84.70;;;;;;5086877;27;20503;-63
2021/07/08 12:17:32;;;;;;;1.88;1.60;;;18.80;85.00;;;;;;5088390;28;20067;-64
2021/07/08 12:20:08;;;;;;;1.63;1.45;;;18.70;84.90;;;;;;5086964;27;20517;-63
2021/07/08 12:22:50;;;;;;;2.60;1.30;;;18.70;85.00;;;;;;5085799;27;20036;-63
2021/07/08 12:25:16;;;;;;;2.38;1.42;;;18.60;85.00;;;;;;5080199;28;20028;-61
2021/07/08 12:27:42;;;;;;;1.80;1.40;;;18.60;85.10;;;;;;5086566;27;20047;-62
2021/07/08 12:30:25;;;;;;;2.33;1.40;;;18.60;85.20;;;;;;5084057;28;20410;-62
2021/07/08 12:33:04;;;;;;;2.33;1.90;;;18.60;85.70;;;;;;5085464;28;20061;-64
2021/07/08 12:35:47;;;;;;;4.35;1.98;;;18.60;85.90;;;;;;5087140;27;20081;-63
2021/07/08 12:38:15;;;;;;;2.75;2.33;;;18.60;85.80;;;;;;5086492;28;20155;-63
2021/07/08 12:40:41;;;;;;;3.08;2.30;;;18.60;85.50;;;;;;5086565;27;20102;-64
2021/07/08 12:43:10;;;;;;;2.70;1.90;;;18.60;85.50;;;;;;5086376;27;20533;-63
2021/07/08 12:45:38;;;;;;;3.08;2.05;;;18.60;85.60;;;;;;5086470;28;20032;-63
2021/07/08 12:48:06;;;;;;;2.70;1.92;;;18.60;85.70;;;;;;5087331;27;20028;-63
2021/07/08 12:50:36;;;;;;;2.97;1.70;;;18.70;85.90;;;;;;5086324;27;20160;-63
2021/07/08 12:53:05;;;;;;;2.38;1.38;;;18.70;86.00;;;;;;5085983;28;20051;-63
2021/07/08 12:55:47;;;;;;;3.70;1.80;;;18.70;86.10;;;;;;5084385;27;20032;-63
2021/07/08 12:58:24;;;;;;;4.60;2.20;;;18.70;86.70;;;;;;5086424;27;20044;-64
2021/07/08 13:00:52;;;;;;;3.03;1.85;;;18.80;86.90;;;;;;5083970;28;20035;-64